sensor_id;sensor_type;location;lat;lon;timestamp;P1;durP1;ratioP1;P2;durP2;ratioP2
76107;SDS011;64834;52.516;10.528;2023-05-15T00:00:32;6.75;;;4.53;;
76107;SDS011;64834;52.516;10.528;2023-05-15T00:02:57;6.60;;;4.75;;
76107;SDS011;64834;52.516;10.528;2023-05-15T00:05:23;6.63;;;4.80;;
76107;SDS011;64834;52.516;10.528;2023-05-15T00:07:48;6.30;;;4.80;;
76107;SDS011;64834;52.516;10.528;2023-05-15T00:10:14;6.13;;;4.40;;
76107;SDS011;64834;52.516;10.528;2023-05-15T00:12:39;9.93;;;5.07;;
76107;SDS011;64834;52.516;10.528;2023-05-15T00:15:04;6.38;;;4.82;;
76107;SDS011;64834;52.516;10.528;2023-05-15T00:17:30;6.20;;;4.95;;
76107;SDS011;64834;52.516;10.528;2023-05-15T00:19:55;6.20;;;4.82;;
76107;SDS011;64834;52.516;10.528;2023-05-15T00:22:23;6.68;;;4.60;;
76107;SDS011;64834;52.516;10.528;2023-05-15T00:24:48;6.60;;;4.95;;
76107;SDS011;64834;52.516;10.528;2023-05-15T00:27:14;7.00;;;4.10;;
76107;SDS011;64834;52.516;10.528;2023-05-15T00:29:39;8.65;;;4.97;;
76107;SDS011;64834;52.516;10.528;2023-05-15T00:32:04;6.35;;;5.22;;
76107;SDS011;64834;52.516;10.528;2023-05-15T00:34:30;6.50;;;5.38;;
76107;SDS011;64834;52.516;10.528;2023-05-15T00:36:55;8.38;;;5.18;;
76107;SDS011;64834;52.516;10.528;2023-05-15T00:39:21;7.15;;;5.20;;
76107;SDS011;64834;52.516;10.528;2023-05-15T00:41:46;6.03;;;5.05;;
76107;SDS011;64834;52.516;10.528;2023-05-15T00:44:14;8.98;;;5.13;;
76107;SDS011;64834;52.516;10.528;2023-05-15T00:46:41;7.55;;;5.32;;
76107;SDS011;64834;52.516;10.528;2023-05-15T00:49:07;7.38;;;5.20;;
76107;SDS011;64834;52.516;10.528;2023-05-15T00:51:37;5.93;;;5.13;;
76107;SDS011;64834;52.516;10.528;2023-05-15T00:54:07;6.00;;;5.00;;
76107;SDS011;64834;52.516;10.528;2023-05-15T00:56:33;7.28;;;5.57;;
76107;SDS011;64834;52.516;10.528;2023-05-15T00:58:59;6.90;;;4.90;;
76107;SDS011;64834;52.516;10.528;2023-05-15T01:01:26;7.78;;;5.60;;
76107;SDS011;64834;52.516;10.528;2023-05-15T01:03:57;6.45;;;5.13;;
76107;SDS011;64834;52.516;10.528;2023-05-15T01:06:22;6.65;;;5.60;;
76107;SDS011;64834;52.516;10.528;2023-05-15T01:08:48;6.25;;;5.22;;
76107;SDS011;64834;52.516;10.528;2023-05-15T01:11:14;11.75;;;6.18;;
76107;SDS011;64834;52.516;10.528;2023-05-15T01:13:41;7.15;;;5.38;;
76107;SDS011;64834;52.516;10.528;2023-05-15T01:16:07;7.68;;;5.38;;
76107;SDS011;64834;52.516;10.528;2023-05-15T01:18:34;10.10;;;6.00;;
76107;SDS011;64834;52.516;10.528;2023-05-15T01:26:33;9.27;;;6.00;;
76107;SDS011;64834;52.516;10.528;2023-05-15T01:32:09;7.35;;;5.90;;
76107;SDS011;64834;52.516;10.528;2023-05-15T01:34:43;7.53;;;5.53;;
76107;SDS011;64834;52.516;10.528;2023-05-15T01:37:12;10.30;;;5.45;;
76107;SDS011;64834;52.516;10.528;2023-05-15T01:39:40;7.78;;;5.63;;
76107;SDS011;64834;52.516;10.528;2023-05-15T01:42:09;7.82;;;5.55;;
76107;SDS011;64834;52.516;10.528;2023-05-15T01:44:39;8.88;;;5.93;;
76107;SDS011;64834;52.516;10.528;2023-05-15T01:47:12;11.70;;;6.30;;
76107;SDS011;64834;52.516;10.528;2023-05-15T01:49:39;8.32;;;6.38;;
76107;SDS011;64834;52.516;10.528;2023-05-15T01:52:09;7.15;;;5.53;;
76107;SDS011;64834;52.516;10.528;2023-05-15T01:54:53;9.18;;;6.25;;
76107;SDS011;64834;52.516;10.528;2023-05-15T01:57:19;9.48;;;6.13;;
76107;SDS011;64834;52.516;10.528;2023-05-15T01:59:46;7.82;;;6.38;;
76107;SDS011;64834;52.516;10.528;2023-05-15T02:02:12;9.82;;;6.78;;
76107;SDS011;64834;52.516;10.528;2023-05-15T02:04:38;8.55;;;6.40;;
76107;SDS011;64834;52.516;10.528;2023-05-15T02:07:05;10.25;;;6.30;;
76107;SDS011;64834;52.516;10.528;2023-05-15T02:09:31;9.10;;;5.85;;
76107;SDS011;64834;52.516;10.528;2023-05-15T02:11:57;7.63;;;5.85;;
76107;SDS011;64834;52.516;10.528;2023-05-15T02:16:52;7.32;;;6.47;;
76107;SDS011;64834;52.516;10.528;2023-05-15T02:19:17;9.38;;;6.40;;
76107;SDS011;64834;52.516;10.528;2023-05-15T02:21:42;9.02;;;7.07;;
76107;SDS011;64834;52.516;10.528;2023-05-15T02:24:08;7.80;;;6.07;;
76107;SDS011;64834;52.516;10.528;2023-05-15T02:32:10;9.73;;;6.68;;
76107;SDS011;64834;52.516;10.528;2023-05-15T02:37:46;9.30;;;7.03;;
76107;SDS011;64834;52.516;10.528;2023-05-15T02:40:16;9.02;;;7.10;;
76107;SDS011;64834;52.516;10.528;2023-05-15T02:42:44;11.40;;;7.25;;
76107;SDS011;64834;52.516;10.528;2023-05-15T02:45:11;10.63;;;7.63;;
76107;SDS011;64834;52.516;10.528;2023-05-15T02:47:37;8.13;;;7.03;;
76107;SDS011;64834;52.516;10.528;2023-05-15T02:50:04;9.82;;;6.85;;
76107;SDS011;64834;52.516;10.528;2023-05-15T02:52:31;8.13;;;7.00;;
76107;SDS011;64834;52.516;10.528;2023-05-15T02:55:00;9.63;;;7.28;;
76107;SDS011;64834;52.516;10.528;2023-05-15T02:57:25;8.90;;;7.47;;
76107;SDS011;64834;52.516;10.528;2023-05-15T02:59:51;9.23;;;7.28;;
76107;SDS011;64834;52.516;10.528;2023-05-15T03:02:18;11.10;;;7.25;;
76107;SDS011;64834;52.516;10.528;2023-05-15T03:04:43;9.75;;;7.20;;
76107;SDS011;64834;52.516;10.528;2023-05-15T03:07:08;10.55;;;7.22;;
76107;SDS011;64834;52.516;10.528;2023-05-15T03:09:34;8.70;;;6.80;;
76107;SDS011;64834;52.516;10.528;2023-05-15T03:11:59;12.48;;;7.40;;
76107;SDS011;64834;52.516;10.528;2023-05-15T03:14:24;9.70;;;7.13;;
76107;SDS011;64834;52.516;10.528;2023-05-15T03:16:50;10.80;;;7.75;;
76107;SDS011;64834;52.516;10.528;2023-05-15T03:19:15;9.50;;;7.30;;
76107;SDS011;64834;52.516;10.528;2023-05-15T03:21:40;8.65;;;6.85;;
76107;SDS011;64834;52.516;10.528;2023-05-15T03:24:06;10.73;;;7.38;;
76107;SDS011;64834;52.516;10.528;2023-05-15T03:26:31;8.23;;;7.10;;
76107;SDS011;64834;52.516;10.528;2023-05-15T03:28:56;9.55;;;7.47;;
76107;SDS011;64834;52.516;10.528;2023-05-15T03:31:22;10.65;;;7.80;;
76107;SDS011;64834;52.516;10.528;2023-05-15T03:33:47;9.10;;;7.28;;
76107;SDS011;64834;52.516;10.528;2023-05-15T03:36:14;8.93;;;6.95;;
76107;SDS011;64834;52.516;10.528;2023-05-15T03:38:40;10.93;;;8.27;;
76107;SDS011;64834;52.516;10.528;2023-05-15T03:41:07;9.63;;;7.65;;
76107;SDS011;64834;52.516;10.528;2023-05-15T03:43:33;9.32;;;7.43;;
76107;SDS011;64834;52.516;10.528;2023-05-15T03:45:58;9.57;;;7.22;;
76107;SDS011;64834;52.516;10.528;2023-05-15T03:48:23;12.43;;;7.68;;
76107;SDS011;64834;52.516;10.528;2023-05-15T03:50:49;12.10;;;7.85;;
76107;SDS011;64834;52.516;10.528;2023-05-15T03:53:15;11.27;;;7.93;;
76107;SDS011;64834;52.516;10.528;2023-05-15T03:55:40;9.15;;;7.75;;
76107;SDS011;64834;52.516;10.528;2023-05-15T03:58:05;9.07;;;7.80;;
76107;SDS011;64834;52.516;10.528;2023-05-15T04:00:31;9.73;;;6.95;;
76107;SDS011;64834;52.516;10.528;2023-05-15T04:02:56;9.70;;;7.68;;
76107;SDS011;64834;52.516;10.528;2023-05-15T04:05:21;10.57;;;7.97;;
76107;SDS011;64834;52.516;10.528;2023-05-15T04:07:47;11.60;;;8.38;;
76107;SDS011;64834;52.516;10.528;2023-05-15T04:10:12;9.43;;;7.47;;
76107;SDS011;64834;52.516;10.528;2023-05-15T04:12:37;9.88;;;7.68;;
76107;SDS011;64834;52.516;10.528;2023-05-15T04:15:17;10.63;;;7.93;;
76107;SDS011;64834;52.516;10.528;2023-05-15T04:17:43;11.07;;;7.97;;
76107;SDS011;64834;52.516;10.528;2023-05-15T04:20:10;11.60;;;8.15;;
76107;SDS011;64834;52.516;10.528;2023-05-15T04:22:38;12.73;;;7.78;;
76107;SDS011;64834;52.516;10.528;2023-05-15T04:25:03;10.23;;;7.90;;
76107;SDS011;64834;52.516;10.528;2023-05-15T04:27:29;9.48;;;7.97;;
76107;SDS011;64834;52.516;10.528;2023-05-15T04:29:54;10.93;;;8.57;;
76107;SDS011;64834;52.516;10.528;2023-05-15T04:32:19;9.57;;;7.50;;
76107;SDS011;64834;52.516;10.528;2023-05-15T04:34:45;11.57;;;7.75;;
76107;SDS011;64834;52.516;10.528;2023-05-15T04:37:11;13.63;;;8.10;;
76107;SDS011;64834;52.516;10.528;2023-05-15T04:39:36;11.48;;;7.28;;
76107;SDS011;64834;52.516;10.528;2023-05-15T04:42:02;9.13;;;7.57;;
76107;SDS011;64834;52.516;10.528;2023-05-15T04:44:27;10.30;;;7.85;;
76107;SDS011;64834;52.516;10.528;2023-05-15T04:46:52;12.70;;;7.90;;
76107;SDS011;64834;52.516;10.528;2023-05-15T04:49:18;10.63;;;8.18;;
76107;SDS011;64834;52.516;10.528;2023-05-15T04:51:43;10.88;;;8.40;;
76107;SDS011;64834;52.516;10.528;2023-05-15T04:54:08;10.60;;;8.27;;
76107;SDS011;64834;52.516;10.528;2023-05-15T04:56:34;10.00;;;8.38;;
76107;SDS011;64834;52.516;10.528;2023-05-15T04:59:00;10.65;;;8.43;;
76107;SDS011;64834;52.516;10.528;2023-05-15T05:01:25;13.32;;;8.65;;
76107;SDS011;64834;52.516;10.528;2023-05-15T05:03:50;12.50;;;8.90;;
76107;SDS011;64834;52.516;10.528;2023-05-15T05:06:16;12.77;;;8.88;;
76107;SDS011;64834;52.516;10.528;2023-05-15T05:08:41;10.05;;;6.82;;
76107;SDS011;64834;52.516;10.528;2023-05-15T05:11:06;9.52;;;8.25;;
76107;SDS011;64834;52.516;10.528;2023-05-15T05:13:32;10.70;;;8.40;;
76107;SDS011;64834;52.516;10.528;2023-05-15T05:15:57;10.93;;;8.80;;
76107;SDS011;64834;52.516;10.528;2023-05-15T05:18:22;10.23;;;8.02;;
76107;SDS011;64834;52.516;10.528;2023-05-15T05:20:48;11.90;;;9.35;;
76107;SDS011;64834;52.516;10.528;2023-05-15T05:23:14;10.93;;;8.90;;
76107;SDS011;64834;52.516;10.528;2023-05-15T05:25:40;11.20;;;8.57;;
76107;SDS011;64834;52.516;10.528;2023-05-15T05:28:05;10.55;;;8.38;;
76107;SDS011;64834;52.516;10.528;2023-05-15T05:30:30;10.48;;;8.63;;
76107;SDS011;64834;52.516;10.528;2023-05-15T05:32:55;12.85;;;10.82;;
76107;SDS011;64834;52.516;10.528;2023-05-15T05:35:21;13.50;;;9.13;;
76107;SDS011;64834;52.516;10.528;2023-05-15T05:37:46;14.05;;;9.63;;
76107;SDS011;64834;52.516;10.528;2023-05-15T05:40:11;13.80;;;9.20;;
76107;SDS011;64834;52.516;10.528;2023-05-15T05:42:37;11.48;;;9.27;;
76107;SDS011;64834;52.516;10.528;2023-05-15T05:45:02;11.68;;;8.85;;
76107;SDS011;64834;52.516;10.528;2023-05-15T05:47:29;10.18;;;8.63;;
76107;SDS011;64834;52.516;10.528;2023-05-15T05:49:54;13.00;;;10.00;;
76107;SDS011;64834;52.516;10.528;2023-05-15T05:52:19;12.48;;;9.02;;
76107;SDS011;64834;52.516;10.528;2023-05-15T05:54:45;12.90;;;8.82;;
76107;SDS011;64834;52.516;10.528;2023-05-15T05:57:11;12.38;;;9.55;;
76107;SDS011;64834;52.516;10.528;2023-05-15T05:59:38;14.52;;;9.98;;
76107;SDS011;64834;52.516;10.528;2023-05-15T06:02:03;13.10;;;9.68;;
76107;SDS011;64834;52.516;10.528;2023-05-15T06:04:29;11.98;;;9.15;;
76107;SDS011;64834;52.516;10.528;2023-05-15T06:06:55;13.80;;;9.70;;
76107;SDS011;64834;52.516;10.528;2023-05-15T06:09:21;13.25;;;9.35;;
76107;SDS011;64834;52.516;10.528;2023-05-15T06:11:46;15.40;;;10.10;;
76107;SDS011;64834;52.516;10.528;2023-05-15T06:14:12;14.95;;;10.07;;
76107;SDS011;64834;52.516;10.528;2023-05-15T06:16:37;15.30;;;10.52;;
76107;SDS011;64834;52.516;10.528;2023-05-15T06:19:02;12.65;;;9.80;;
76107;SDS011;64834;52.516;10.528;2023-05-15T06:21:28;12.93;;;9.35;;
76107;SDS011;64834;52.516;10.528;2023-05-15T06:23:53;12.32;;;9.68;;
76107;SDS011;64834;52.516;10.528;2023-05-15T06:26:18;11.70;;;9.40;;
76107;SDS011;64834;52.516;10.528;2023-05-15T06:28:45;13.93;;;9.23;;
76107;SDS011;64834;52.516;10.528;2023-05-15T06:31:10;13.75;;;10.02;;
76107;SDS011;64834;52.516;10.528;2023-05-15T06:33:35;10.38;;;8.32;;
76107;SDS011;64834;52.516;10.528;2023-05-15T06:36:01;9.75;;;8.30;;
76107;SDS011;64834;52.516;10.528;2023-05-15T06:38:26;11.30;;;8.25;;
76107;SDS011;64834;52.516;10.528;2023-05-15T06:40:51;10.55;;;7.60;;
76107;SDS011;64834;52.516;10.528;2023-05-15T06:43:17;10.88;;;8.10;;
76107;SDS011;64834;52.516;10.528;2023-05-15T06:45:42;8.73;;;7.32;;
76107;SDS011;64834;52.516;10.528;2023-05-15T06:48:07;11.73;;;8.20;;
76107;SDS011;64834;52.516;10.528;2023-05-15T06:50:32;8.57;;;7.53;;
76107;SDS011;64834;52.516;10.528;2023-05-15T06:52:58;14.30;;;8.98;;
76107;SDS011;64834;52.516;10.528;2023-05-15T06:55:23;11.60;;;8.93;;
76107;SDS011;64834;52.516;10.528;2023-05-15T06:57:48;10.13;;;8.25;;
76107;SDS011;64834;52.516;10.528;2023-05-15T07:00:14;17.75;;;8.52;;
76107;SDS011;64834;52.516;10.528;2023-05-15T07:02:40;10.90;;;7.82;;
76107;SDS011;64834;52.516;10.528;2023-05-15T07:05:05;8.75;;;7.45;;
76107;SDS011;64834;52.516;10.528;2023-05-15T07:07:31;9.43;;;7.53;;
76107;SDS011;64834;52.516;10.528;2023-05-15T07:09:56;12.80;;;8.15;;
76107;SDS011;64834;52.516;10.528;2023-05-15T07:12:21;10.32;;;7.75;;
76107;SDS011;64834;52.516;10.528;2023-05-15T07:14:47;10.77;;;8.00;;
76107;SDS011;64834;52.516;10.528;2023-05-15T07:17:12;11.98;;;7.85;;
76107;SDS011;64834;52.516;10.528;2023-05-15T07:19:37;10.98;;;7.47;;
76107;SDS011;64834;52.516;10.528;2023-05-15T07:22:03;13.00;;;8.32;;
76107;SDS011;64834;52.516;10.528;2023-05-15T07:24:28;11.35;;;7.97;;
76107;SDS011;64834;52.516;10.528;2023-05-15T07:26:53;11.23;;;8.73;;
76107;SDS011;64834;52.516;10.528;2023-05-15T07:29:20;10.80;;;8.45;;
76107;SDS011;64834;52.516;10.528;2023-05-15T07:31:46;9.60;;;8.18;;
76107;SDS011;64834;52.516;10.528;2023-05-15T07:34:11;9.75;;;8.55;;
76107;SDS011;64834;52.516;10.528;2023-05-15T07:36:37;9.95;;;7.97;;
76107;SDS011;64834;52.516;10.528;2023-05-15T07:39:02;9.45;;;7.90;;
76107;SDS011;64834;52.516;10.528;2023-05-15T07:41:27;9.10;;;7.65;;
76107;SDS011;64834;52.516;10.528;2023-05-15T07:43:54;10.32;;;8.25;;
76107;SDS011;64834;52.516;10.528;2023-05-15T07:46:20;10.73;;;7.25;;
76107;SDS011;64834;52.516;10.528;2023-05-15T07:48:45;9.23;;;8.07;;
76107;SDS011;64834;52.516;10.528;2023-05-15T07:51:10;11.25;;;8.48;;
76107;SDS011;64834;52.516;10.528;2023-05-15T07:53:36;10.93;;;8.38;;
76107;SDS011;64834;52.516;10.528;2023-05-15T07:56:01;11.05;;;7.68;;
76107;SDS011;64834;52.516;10.528;2023-05-15T07:58:26;10.32;;;7.63;;
76107;SDS011;64834;52.516;10.528;2023-05-15T08:00:52;9.88;;;7.65;;
76107;SDS011;64834;52.516;10.528;2023-05-15T08:03:17;9.48;;;7.38;;
76107;SDS011;64834;52.516;10.528;2023-05-15T08:05:43;8.63;;;7.28;;
76107;SDS011;64834;52.516;10.528;2023-05-15T08:08:08;9.73;;;7.80;;
76107;SDS011;64834;52.516;10.528;2023-05-15T08:10:33;9.05;;;7.40;;
76107;SDS011;64834;52.516;10.528;2023-05-15T08:12:59;9.55;;;6.95;;
76107;SDS011;64834;52.516;10.528;2023-05-15T08:15:24;8.50;;;6.78;;
76107;SDS011;64834;52.516;10.528;2023-05-15T08:17:49;11.00;;;6.60;;
76107;SDS011;64834;52.516;10.528;2023-05-15T08:20:15;8.13;;;6.72;;
76107;SDS011;64834;52.516;10.528;2023-05-15T08:22:40;10.52;;;7.35;;
76107;SDS011;64834;52.516;10.528;2023-05-15T08:25:06;8.95;;;6.78;;
76107;SDS011;64834;52.516;10.528;2023-05-15T08:27:33;8.40;;;6.80;;
76107;SDS011;64834;52.516;10.528;2023-05-15T08:29:58;9.82;;;7.05;;
76107;SDS011;64834;52.516;10.528;2023-05-15T08:32:23;9.20;;;7.00;;
76107;SDS011;64834;52.516;10.528;2023-05-15T08:34:49;9.63;;;6.60;;
76107;SDS011;64834;52.516;10.528;2023-05-15T08:37:15;7.45;;;6.13;;
76107;SDS011;64834;52.516;10.528;2023-05-15T08:39:40;7.38;;;5.53;;
76107;SDS011;64834;52.516;10.528;2023-05-15T08:42:19;10.85;;;6.05;;
76107;SDS011;64834;52.516;10.528;2023-05-15T08:44:46;9.38;;;6.72;;
76107;SDS011;64834;52.516;10.528;2023-05-15T08:47:12;8.02;;;6.07;;
76107;SDS011;64834;52.516;10.528;2023-05-15T08:49:57;8.15;;;6.72;;
76107;SDS011;64834;52.516;10.528;2023-05-15T08:52:30;6.53;;;5.50;;
76107;SDS011;64834;52.516;10.528;2023-05-15T08:54:57;8.23;;;5.45;;
76107;SDS011;64834;52.516;10.528;2023-05-15T08:57:23;7.30;;;5.60;;
76107;SDS011;64834;52.516;10.528;2023-05-15T08:59:50;8.50;;;5.43;;
76107;SDS011;64834;52.516;10.528;2023-05-15T09:02:16;6.47;;;5.78;;
76107;SDS011;64834;52.516;10.528;2023-05-15T09:04:43;6.00;;;4.97;;
76107;SDS011;64834;52.516;10.528;2023-05-15T09:07:08;5.53;;;4.22;;
76107;SDS011;64834;52.516;10.528;2023-05-15T09:09:34;6.78;;;4.80;;
76107;SDS011;64834;52.516;10.528;2023-05-15T09:12:00;7.32;;;4.22;;
76107;SDS011;64834;52.516;10.528;2023-05-15T09:14:27;5.57;;;4.03;;
76107;SDS011;64834;52.516;10.528;2023-05-15T09:16:53;4.15;;;3.47;;
76107;SDS011;64834;52.516;10.528;2023-05-15T09:19:18;5.95;;;3.67;;
76107;SDS011;64834;52.516;10.528;2023-05-15T09:21:47;6.03;;;3.70;;
76107;SDS011;64834;52.516;10.528;2023-05-15T09:24:23;5.00;;;3.83;;
76107;SDS011;64834;52.516;10.528;2023-05-15T09:27:05;4.28;;;3.13;;
76107;SDS011;64834;52.516;10.528;2023-05-15T09:29:32;5.97;;;3.63;;
76107;SDS011;64834;52.516;10.528;2023-05-15T09:32:02;6.75;;;3.35;;
76107;SDS011;64834;52.516;10.528;2023-05-15T09:34:32;5.72;;;3.70;;
76107;SDS011;64834;52.516;10.528;2023-05-15T09:36:59;4.05;;;3.33;;
76107;SDS011;64834;52.516;10.528;2023-05-15T09:39:25;5.30;;;4.05;;
76107;SDS011;64834;52.516;10.528;2023-05-15T09:41:51;5.03;;;3.20;;
76107;SDS011;64834;52.516;10.528;2023-05-15T09:44:26;4.22;;;3.22;;
76107;SDS011;64834;52.516;10.528;2023-05-15T09:46:52;4.32;;;2.85;;
76107;SDS011;64834;52.516;10.528;2023-05-15T09:49:20;4.47;;;3.28;;
76107;SDS011;64834;52.516;10.528;2023-05-15T09:51:46;5.30;;;3.45;;
76107;SDS011;64834;52.516;10.528;2023-05-15T09:54:16;4.10;;;3.05;;
76107;SDS011;64834;52.516;10.528;2023-05-15T09:56:43;4.50;;;3.00;;
76107;SDS011;64834;52.516;10.528;2023-05-15T09:59:16;4.05;;;2.70;;
76107;SDS011;64834;52.516;10.528;2023-05-15T10:01:43;3.60;;;2.72;;
76107;SDS011;64834;52.516;10.528;2023-05-15T10:04:15;4.50;;;2.83;;
76107;SDS011;64834;52.516;10.528;2023-05-15T10:06:41;7.68;;;3.17;;
76107;SDS011;64834;52.516;10.528;2023-05-15T10:09:10;4.80;;;3.10;;
76107;SDS011;64834;52.516;10.528;2023-05-15T10:11:37;4.65;;;2.75;;
76107;SDS011;64834;52.516;10.528;2023-05-15T10:14:04;4.25;;;2.88;;
76107;SDS011;64834;52.516;10.528;2023-05-15T10:16:31;4.82;;;2.70;;
76107;SDS011;64834;52.516;10.528;2023-05-15T10:18:59;3.83;;;2.83;;
76107;SDS011;64834;52.516;10.528;2023-05-15T10:21:29;3.90;;;2.75;;
76107;SDS011;64834;52.516;10.528;2023-05-15T10:23:55;3.08;;;2.28;;
76107;SDS011;64834;52.516;10.528;2023-05-15T10:26:28;5.97;;;2.38;;
76107;SDS011;64834;52.516;10.528;2023-05-15T10:29:07;5.55;;;2.80;;
76107;SDS011;64834;52.516;10.528;2023-05-15T10:31:35;7.30;;;2.85;;
76107;SDS011;64834;52.516;10.528;2023-05-15T10:34:01;4.50;;;2.80;;
76107;SDS011;64834;52.516;10.528;2023-05-15T10:36:28;3.45;;;2.67;;
76107;SDS011;64834;52.516;10.528;2023-05-15T10:38:54;3.95;;;2.60;;
76107;SDS011;64834;52.516;10.528;2023-05-15T10:41:21;4.10;;;2.70;;
76107;SDS011;64834;52.516;10.528;2023-05-15T10:43:48;3.65;;;2.58;;
76107;SDS011;64834;52.516;10.528;2023-05-15T10:46:14;4.38;;;3.00;;
76107;SDS011;64834;52.516;10.528;2023-05-15T10:48:40;3.20;;;2.50;;
76107;SDS011;64834;52.516;10.528;2023-05-15T10:51:15;6.97;;;3.17;;
76107;SDS011;64834;52.516;10.528;2023-05-15T10:53:42;5.45;;;3.00;;
76107;SDS011;64834;52.516;10.528;2023-05-15T10:56:12;3.58;;;2.60;;
76107;SDS011;64834;52.516;10.528;2023-05-15T10:58:42;3.30;;;2.28;;
76107;SDS011;64834;52.516;10.528;2023-05-15T11:01:23;3.55;;;2.58;;
76107;SDS011;64834;52.516;10.528;2023-05-15T11:06:44;4.85;;;2.80;;
76107;SDS011;64834;52.516;10.528;2023-05-15T11:14:16;6.43;;;2.67;;
76107;SDS011;64834;52.516;10.528;2023-05-15T11:19:24;2.80;;;2.25;;
76107;SDS011;64834;52.516;10.528;2023-05-15T11:27:23;3.35;;;2.47;;
76107;SDS011;64834;52.516;10.528;2023-05-15T11:35:18;5.03;;;2.60;;
76107;SDS011;64834;52.516;10.528;2023-05-15T11:37:46;3.97;;;2.50;;
76107;SDS011;64834;52.516;10.528;2023-05-15T11:40:14;5.28;;;2.63;;
76107;SDS011;64834;52.516;10.528;2023-05-15T11:45:40;3.60;;;2.70;;
76107;SDS011;64834;52.516;10.528;2023-05-15T11:48:06;5.05;;;2.50;;
76107;SDS011;64834;52.516;10.528;2023-05-15T11:50:36;3.88;;;2.72;;
76107;SDS011;64834;52.516;10.528;2023-05-15T11:53:02;4.78;;;2.70;;
76107;SDS011;64834;52.516;10.528;2023-05-15T11:55:29;7.15;;;2.80;;
76107;SDS011;64834;52.516;10.528;2023-05-15T11:57:56;3.58;;;2.50;;
76107;SDS011;64834;52.516;10.528;2023-05-15T12:00:21;4.78;;;3.13;;
76107;SDS011;64834;52.516;10.528;2023-05-15T12:02:46;5.40;;;3.30;;
76107;SDS011;64834;52.516;10.528;2023-05-15T12:05:12;4.43;;;2.70;;
76107;SDS011;64834;52.516;10.528;2023-05-15T12:07:38;5.65;;;2.70;;
76107;SDS011;64834;52.516;10.528;2023-05-15T12:10:05;5.88;;;2.65;;
76107;SDS011;64834;52.516;10.528;2023-05-15T12:12:34;4.88;;;3.10;;
76107;SDS011;64834;52.516;10.528;2023-05-15T12:15:00;4.95;;;2.78;;
76107;SDS011;64834;52.516;10.528;2023-05-15T12:17:26;4.95;;;3.20;;
76107;SDS011;64834;52.516;10.528;2023-05-15T12:19:51;4.93;;;3.00;;
76107;SDS011;64834;52.516;10.528;2023-05-15T12:22:17;5.13;;;2.72;;
76107;SDS011;64834;52.516;10.528;2023-05-15T12:24:43;7.30;;;3.38;;
76107;SDS011;64834;52.516;10.528;2023-05-15T12:27:09;5.45;;;3.10;;
76107;SDS011;64834;52.516;10.528;2023-05-15T12:29:35;4.10;;;3.05;;
76107;SDS011;64834;52.516;10.528;2023-05-15T12:32:01;3.40;;;2.50;;
76107;SDS011;64834;52.516;10.528;2023-05-15T12:34:27;6.13;;;3.10;;
76107;SDS011;64834;52.516;10.528;2023-05-15T12:36:53;6.30;;;2.97;;
76107;SDS011;64834;52.516;10.528;2023-05-15T12:39:18;4.80;;;2.75;;
76107;SDS011;64834;52.516;10.528;2023-05-15T12:41:44;4.95;;;2.83;;
76107;SDS011;64834;52.516;10.528;2023-05-15T12:44:16;7.15;;;3.38;;
76107;SDS011;64834;52.516;10.528;2023-05-15T12:46:42;5.13;;;2.70;;
76107;SDS011;64834;52.516;10.528;2023-05-15T12:49:07;4.55;;;2.63;;
76107;SDS011;64834;52.516;10.528;2023-05-15T12:51:32;5.60;;;3.28;;
76107;SDS011;64834;52.516;10.528;2023-05-15T12:53:57;6.60;;;3.08;;
76107;SDS011;64834;52.516;10.528;2023-05-15T12:56:23;6.07;;;3.00;;
76107;SDS011;64834;52.516;10.528;2023-05-15T12:58:49;6.60;;;3.10;;
76107;SDS011;64834;52.516;10.528;2023-05-15T13:01:14;5.68;;;2.97;;
76107;SDS011;64834;52.516;10.528;2023-05-15T13:03:41;4.40;;;2.88;;
76107;SDS011;64834;52.516;10.528;2023-05-15T13:06:08;5.40;;;3.03;;
76107;SDS011;64834;52.516;10.528;2023-05-15T13:08:38;5.68;;;3.28;;
76107;SDS011;64834;52.516;10.528;2023-05-15T13:11:04;4.18;;;2.97;;
76107;SDS011;64834;52.516;10.528;2023-05-15T13:13:40;4.57;;;3.30;;
76107;SDS011;64834;52.516;10.528;2023-05-15T13:16:16;4.10;;;3.30;;
76107;SDS011;64834;52.516;10.528;2023-05-15T13:18:42;7.00;;;3.28;;
76107;SDS011;64834;52.516;10.528;2023-05-15T13:21:07;4.22;;;2.90;;
76107;SDS011;64834;52.516;10.528;2023-05-15T13:23:32;4.65;;;3.28;;
76107;SDS011;64834;52.516;10.528;2023-05-15T13:25:58;4.57;;;3.67;;
76107;SDS011;64834;52.516;10.528;2023-05-15T13:28:23;4.90;;;3.17;;
76107;SDS011;64834;52.516;10.528;2023-05-15T13:30:48;3.97;;;3.22;;
76107;SDS011;64834;52.516;10.528;2023-05-15T13:33:14;5.78;;;3.10;;
76107;SDS011;64834;52.516;10.528;2023-05-15T13:35:40;4.63;;;2.95;;
76107;SDS011;64834;52.516;10.528;2023-05-15T13:38:06;5.75;;;3.10;;
76107;SDS011;64834;52.516;10.528;2023-05-15T13:40:32;5.38;;;2.83;;
76107;SDS011;64834;52.516;10.528;2023-05-15T13:42:59;3.88;;;2.75;;
76107;SDS011;64834;52.516;10.528;2023-05-15T13:45:24;4.05;;;2.70;;
76107;SDS011;64834;52.516;10.528;2023-05-15T13:47:50;4.60;;;2.85;;
76107;SDS011;64834;52.516;10.528;2023-05-15T13:50:15;4.25;;;2.60;;
76107;SDS011;64834;52.516;10.528;2023-05-15T13:52:41;5.18;;;2.67;;
76107;SDS011;64834;52.516;10.528;2023-05-15T13:55:07;3.63;;;2.65;;
76107;SDS011;64834;52.516;10.528;2023-05-15T13:57:34;5.40;;;3.00;;
76107;SDS011;64834;52.516;10.528;2023-05-15T14:00:06;4.00;;;2.42;;
76107;SDS011;64834;52.516;10.528;2023-05-15T14:02:36;3.75;;;2.67;;
76107;SDS011;64834;52.516;10.528;2023-05-15T14:05:01;4.05;;;2.42;;
76107;SDS011;64834;52.516;10.528;2023-05-15T14:07:26;4.07;;;2.15;;
76107;SDS011;64834;52.516;10.528;2023-05-15T14:09:52;5.20;;;2.33;;
76107;SDS011;64834;52.516;10.528;2023-05-15T14:12:17;3.67;;;2.80;;
76107;SDS011;64834;52.516;10.528;2023-05-15T14:14:45;5.50;;;2.90;;
76107;SDS011;64834;52.516;10.528;2023-05-15T14:17:11;6.50;;;2.50;;
76107;SDS011;64834;52.516;10.528;2023-05-15T14:19:37;3.47;;;2.42;;
76107;SDS011;64834;52.516;10.528;2023-05-15T14:22:02;6.30;;;2.80;;
76107;SDS011;64834;52.516;10.528;2023-05-15T14:24:27;3.72;;;2.22;;
76107;SDS011;64834;52.516;10.528;2023-05-15T14:26:53;4.18;;;2.47;;
76107;SDS011;64834;52.516;10.528;2023-05-15T14:29:18;4.18;;;2.55;;
76107;SDS011;64834;52.516;10.528;2023-05-15T14:31:43;4.00;;;2.47;;
76107;SDS011;64834;52.516;10.528;2023-05-15T14:34:09;4.13;;;2.38;;
76107;SDS011;64834;52.516;10.528;2023-05-15T14:36:34;6.35;;;2.70;;
76107;SDS011;64834;52.516;10.528;2023-05-15T14:39:00;4.60;;;2.38;;
76107;SDS011;64834;52.516;10.528;2023-05-15T14:41:26;3.50;;;2.58;;
76107;SDS011;64834;52.516;10.528;2023-05-15T14:43:51;5.45;;;3.30;;
76107;SDS011;64834;52.516;10.528;2023-05-15T14:46:17;7.95;;;3.67;;
76107;SDS011;64834;52.516;10.528;2023-05-15T14:48:42;16.35;;;3.88;;
76107;SDS011;64834;52.516;10.528;2023-05-15T14:51:07;7.45;;;4.50;;
76107;SDS011;64834;52.516;10.528;2023-05-15T14:53:33;6.60;;;4.25;;
76107;SDS011;64834;52.516;10.528;2023-05-15T14:55:58;6.18;;;4.30;;
76107;SDS011;64834;52.516;10.528;2023-05-15T14:58:25;10.70;;;5.53;;
76107;SDS011;64834;52.516;10.528;2023-05-15T15:00:50;9.55;;;4.43;;
76107;SDS011;64834;52.516;10.528;2023-05-15T15:03:16;5.95;;;3.75;;
76107;SDS011;64834;52.516;10.528;2023-05-15T15:05:42;4.93;;;3.22;;
76107;SDS011;64834;52.516;10.528;2023-05-15T15:08:08;8.02;;;3.97;;
76107;SDS011;64834;52.516;10.528;2023-05-15T15:10:35;5.85;;;4.28;;